Time;durP1;ratioP1;P1;durP2;ratioP2;P2;SDS_P1;SDS_P2;PMS_P1;PMS_P2;Temp;Humidity;BMP_temperature;BMP_pressure;BME280_temperature;BME280_humidity;BME280_pressure;Samples;Min_cycle;Max_cycle;Signal;HPM_P1;HPM_P2
2023/12/06 00:02:39;;;;;;;55.07;27.30;;;-4.60;99.90;;;;;;8370162;28;20321;-66
2023/12/06 00:06:39;;;;;;;54.60;27.17;;;-4.60;99.90;;;;;;8372187;28;20230;-67
2023/12/06 00:10:40;;;;;;;53.53;27.43;;;-4.60;99.90;;;;;;8366913;28;20185;-63
2023/12/06 00:14:41;;;;;;;53.30;28.07;;;-4.60;99.90;;;;;;8367816;28;20177;-63
2023/12/06 00:18:43;;;;;;;51.27;26.60;;;-4.60;1.00;;;;;;8370346;28;20272;-61
2023/12/06 00:22:44;;;;;;;44.13;24.57;;;-4.60;1.00;;;;;;8372586;28;20239;-63
2023/12/06 00:26:46;;;;;;;46.97;26.83;;;-4.60;1.00;;;;;;8374298;28;20181;-63
2023/12/06 00:30:47;;;;;;;54.00;25.83;;;-4.50;88.10;;;;;;8363962;28;20202;-61
2023/12/06 00:34:47;;;;;;;51.60;25.30;;;-4.50;1.00;;;;;;8369097;28;20181;-60
2023/12/06 00:38:48;;;;;;;55.03;27.90;;;-4.40;99.90;;;;;;8371239;28;20186;-62
2023/12/06 00:42:49;;;;;;;59.40;29.93;;;-4.30;1.00;;;;;;8368000;28;20209;-61
2023/12/06 00:46:52;;;;;;;57.97;28.93;;;-4.30;99.90;;;;;;8374268;28;20258;-61
2023/12/06 00:50:52;;;;;;;59.43;28.13;;;-4.30;99.90;;;;;;8364334;28;20197;-62
2023/12/06 00:54:53;;;;;;;50.40;27.63;;;-4.20;99.90;;;;;;8370718;28;20181;-61
2023/12/06 00:58:54;;;;;;;56.27;28.40;;;-4.20;1.00;;;;;;8365840;28;20221;-62
2023/12/06 01:02:55;;;;;;;65.00;31.83;;;-4.20;99.90;;;;;;8370828;28;20262;-62
2023/12/06 01:06:55;;;;;;;57.27;29.90;;;-4.20;99.90;;;;;;8377403;28;20181;-64
2023/12/06 01:10:56;;;;;;;61.77;31.93;;;-4.20;99.90;;;;;;8378156;28;20220;-62
2023/12/06 01:14:57;;;;;;;63.53;33.07;;;-4.10;58.40;;;;;;8377882;28;20185;-61
2023/12/06 01:18:58;;;;;;;77.67;38.10;;;-4.10;99.90;;;;;;8378115;28;20177;-62
2023/12/06 01:22:59;;;;;;;67.57;35.60;;;-4.00;99.90;;;;;;8377717;28;20208;-61
2023/12/06 01:26:59;;;;;;;75.47;34.93;;;-3.90;1.00;;;;;;8375173;28;20181;-63
2023/12/06 01:31:00;;;;;;;75.17;36.27;;;-3.90;1.00;;;;;;8376367;28;20185;-63
2023/12/06 01:35:02;;;;;;;63.27;31.10;;;-3.80;1.00;;;;;;8380972;28;20180;-62
2023/12/06 01:39:04;;;;;;;67.70;31.43;;;-3.80;1.00;;;;;;8373488;28;20224;-61
2023/12/06 01:43:07;;;;;;;59.53;28.60;;;-3.80;99.90;;;;;;8375694;28;20220;-62
2023/12/06 01:47:08;;;;;;;56.33;29.47;;;-3.80;63.00;;;;;;8372498;28;20188;-61
2023/12/06 01:51:11;;;;;;;54.23;28.47;;;-3.80;1.00;;;;;;8375237;28;20182;-62
2023/12/06 01:55:14;;;;;;;64.63;31.00;;;-3.80;99.90;;;;;;8371817;28;20189;-63
2023/12/06 01:59:15;;;;;;;104.30;43.27;;;-3.80;99.90;;;;;;8372306;28;20189;-62
2023/12/06 02:03:16;;;;;;;122.13;47.63;;;-3.80;1.00;;;;;;8372438;28;20610;-62
2023/12/06 02:07:19;;;;;;;104.90;48.10;;;-3.90;99.90;;;;;;8373184;28;20338;-64
2023/12/06 02:11:20;;;;;;;101.87;45.47;;;-3.90;99.90;;;;;;8381554;28;20189;-64
2023/12/06 02:15:21;;;;;;;98.07;45.63;;;-3.90;41.60;;;;;;8374735;28;20190;-61
2023/12/06 02:19:26;;;;;;;90.00;39.50;;;-4.00;1.00;;;;;;8372596;28;20227;-63
2023/12/06 02:23:33;;;;;;;71.83;34.17;;;-4.00;1.00;;;;;;8371962;28;20603;-61
2023/12/06 02:27:35;;;;;;;69.47;32.07;;;-4.10;99.90;;;;;;8374997;28;20242;-67
2023/12/06 02:31:36;;;;;;;62.77;30.97;;;-4.30;99.90;;;;;;8370116;28;20182;-66
2023/12/06 02:35:48;;;;;;;60.53;28.40;;;-4.40;84.80;;;;;;8374494;28;20188;-65
2023/12/06 02:39:51;;;;;;;94.07;42.57;;;-4.50;1.00;;;;;;8375683;28;20184;-66
2023/12/06 02:43:52;;;;;;;76.93;37.60;;;-4.50;19.10;;;;;;8371009;28;20213;-65
2023/12/06 02:47:53;;;;;;;62.93;32.27;;;-4.60;66.60;;;;;;8371604;28;20192;-65
2023/12/06 02:51:54;;;;;;;55.53;30.33;;;-4.60;99.90;;;;;;8374214;28;20230;-66
2023/12/06 02:55:55;;;;;;;62.03;29.87;;;-4.80;99.90;;;;;;8373971;28;20193;-65
2023/12/06 02:59:56;;;;;;;63.60;30.73;;;-4.80;99.90;;;;;;8373274;28;20232;-67
2023/12/06 03:03:57;;;;;;;64.10;31.17;;;-4.90;99.90;;;;;;8376642;28;20199;-66
2023/12/06 03:08:01;;;;;;;61.60;31.00;;;-4.90;99.90;;;;;;8371745;28;20185;-66
2023/12/06 03:12:03;;;;;;;72.50;35.07;;;-5.00;1.00;;;;;;8377468;28;20217;-66
2023/12/06 03:16:04;;;;;;;66.70;31.63;;;-5.00;1.00;;;;;;8377435;28;20192;-65
2023/12/06 03:20:06;;;;;;;61.50;29.27;;;-5.10;1.00;;;;;;8371916;28;20210;-65
2023/12/06 03:24:07;;;;;;;56.17;28.67;;;-5.20;99.90;;;;;;8364148;28;20384;-66
2023/12/06 03:28:08;;;;;;;63.57;29.10;;;-5.30;1.00;;;;;;8369483;28;20294;-66
2023/12/06 03:32:10;;;;;;;53.90;26.63;;;-5.40;1.00;;;;;;8375504;28;20267;-66
2023/12/06 03:36:11;;;;;;;52.53;25.03;;;-5.50;1.00;;;;;;8376553;28;20194;-66
2023/12/06 03:40:12;;;;;;;62.60;30.57;;;-5.60;1.00;;;;;;8372907;28;20186;-67
2023/12/06 03:44:13;;;;;;;65.70;31.10;;;-5.70;26.80;;;;;;8373058;28;20291;-66
2023/12/06 03:48:14;;;;;;;62.40;30.43;;;-5.70;99.90;;;;;;8378898;28;20184;-66
2023/12/06 03:52:14;;;;;;;60.10;31.40;;;-5.70;99.90;;;;;;8372207;28;20196;-66
2023/12/06 03:56:15;;;;;;;65.70;32.30;;;-5.70;1.00;;;;;;8379494;28;20189;-66
2023/12/06 04:00:16;;;;;;;70.27;33.47;;;-5.70;99.90;;;;;;8381956;28;20316;-66
2023/12/06 04:04:17;;;;;;;66.63;32.03;;;-5.80;99.90;;;;;;8380171;28;20251;-66
2023/12/06 04:08:19;;;;;;;64.27;31.07;;;-5.80;99.90;;;;;;8374025;28;20185;-65
2023/12/06 04:12:19;;;;;;;64.20;30.70;;;-5.90;99.90;;;;;;8383156;28;20192;-65
2023/12/06 04:16:20;;;;;;;59.70;29.03;;;-5.90;1.00;;;;;;8378199;28;20199;-65
2023/12/06 04:20:21;;;;;;;61.57;27.63;;;-6.00;1.00;;;;;;8382396;28;20193;-66
2023/12/06 04:24:22;;;;;;;52.27;27.70;;;-6.20;1.00;;;;;;8383173;28;20219;-65
2023/12/06 04:28:24;;;;;;;53.17;26.10;;;-6.30;99.90;;;;;;8381780;28;20234;-66
2023/12/06 04:32:24;;;;;;;55.13;27.20;;;-6.40;99.90;;;;;;8385079;28;20185;-66
2023/12/06 04:36:25;;;;;;;57.47;27.67;;;-6.40;99.90;;;;;;8384174;28;20191;-67
2023/12/06 04:40:26;;;;;;;59.53;26.67;;;-6.40;1.00;;;;;;8382023;28;20209;-66
2023/12/06 04:44:27;;;;;;;60.87;31.73;;;-6.40;99.90;;;;;;8390010;28;20219;-65
2023/12/06 04:48:28;;;;;;;67.23;31.47;;;-6.40;99.90;;;;;;8383472;28;20187;-62
2023/12/06 04:52:28;;;;;;;66.43;32.73;;;-6.40;99.90;;;;;;8379659;28;20226;-63
2023/12/06 04:56:29;;;;;;;74.90;33.13;;;-6.30;99.90;;;;;;8376320;28;20202;-63
2023/12/06 05:00:31;;;;;;;70.90;33.87;;;-6.30;99.90;;;;;;8372152;28;20211;-61
2023/12/06 05:04:32;;;;;;;72.07;33.90;;;-6.30;99.90;;;;;;8373534;28;20226;-62
2023/12/06 05:08:33;;;;;;;71.40;34.43;;;-6.30;1.00;;;;;;8374787;28;20185;-62
2023/12/06 05:12:34;;;;;;;74.63;34.77;;;-6.30;30.00;;;;;;8373136;28;20184;-63
2023/12/06 05:16:35;;;;;;;88.73;38.10;;;-6.20;99.90;;;;;;8375729;28;20409;-63
2023/12/06 05:20:37;;;;;;;76.73;36.33;;;-6.20;99.90;;;;;;8372487;28;20170;-62
2023/12/06 05:24:39;;;;;;;83.30;37.97;;;-6.10;99.90;;;;;;8374532;28;20222;-61
2023/12/06 05:28:39;;;;;;;81.57;37.30;;;-6.00;99.90;;;;;;8380011;28;20173;-62
2023/12/06 05:32:40;;;;;;;96.43;43.40;;;-5.80;99.90;;;;;;8375634;28;20270;-61
2023/12/06 05:36:41;;;;;;;99.17;40.83;;;-5.70;99.90;;;;;;8375893;28;20180;-60
2023/12/06 05:40:41;;;;;;;111.27;47.13;;;-5.50;99.90;;;;;;8373690;28;20622;-62
2023/12/06 05:44:42;;;;;;;105.07;43.73;;;-5.40;99.90;;;;;;8370402;28;20208;-63
2023/12/06 05:48:43;;;;;;;105.30;46.07;;;-5.30;99.90;;;;;;8370802;28;20181;-62
2023/12/06 05:52:44;;;;;;;104.70;44.40;;;-5.10;99.90;;;;;;8371060;28;20188;-61
2023/12/06 05:56:45;;;;;;;109.50;47.70;;;-5.00;99.90;;;;;;8370439;28;20182;-63
2023/12/06 06:00:46;;;;;;;99.03;46.20;;;-4.80;99.90;;;;;;8373020;28;20197;-61
2023/12/06 06:04:47;;;;;;;104.43;46.57;;;-4.70;99.90;;;;;;8369651;28;20236;-63
2023/12/06 06:08:47;;;;;;;136.17;64.27;;;-4.60;99.90;;;;;;8375045;28;20181;-63
2023/12/06 06:12:48;;;;;;;143.77;72.27;;;-4.50;99.90;;;;;;8375597;28;20247;-62
2023/12/06 06:16:50;;;;;;;118.77;58.57;;;-4.40;99.90;;;;;;8370637;28;20220;-62
2023/12/06 06:20:52;;;;;;;110.00;58.43;;;-4.30;99.90;;;;;;8374999;28;20185;-62
2023/12/06 06:24:53;;;;;;;131.20;63.17;;;-4.30;99.90;;;;;;8371492;28;20213;-63
2023/12/06 06:28:53;;;;;;;142.87;69.33;;;-4.20;99.90;;;;;;8368283;28;20267;-62
2023/12/06 06:32:54;;;;;;;150.77;56.37;;;-4.20;99.90;;;;;;8372829;28;20208;-64
2023/12/06 06:36:55;;;;;;;117.07;48.93;;;-4.10;99.90;;;;;;8374925;28;20181;-62
2023/12/06 06:40:57;;;;;;;102.47;50.87;;;-4.10;99.90;;;;;;8369155;28;20432;-61
2023/12/06 06:44:58;;;;;;;137.40;54.27;;;-4.00;99.90;;;;;;8261418;28;3142609;-63
2023/12/06 06:48:59;;;;;;;138.20;60.63;;;-4.00;99.90;;;;;;8371515;28;20181;-64
2023/12/06 06:53:01;;;;;;;99.73;48.93;;;-3.90;99.90;;;;;;8371500;28;20216;-63
2023/12/06 06:57:02;;;;;;;87.83;44.97;;;-3.80;99.90;;;;;;8373244;28;20189;-62
2023/12/06 07:01:03;;;;;;;79.50;41.57;;;-3.80;99.90;;;;;;8374306;28;20229;-67
2023/12/06 07:05:06;;;;;;;82.17;39.90;;;-3.70;99.90;;;;;;8369823;28;20218;-69
2023/12/06 07:09:06;;;;;;;75.53;39.37;;;-3.60;99.90;;;;;;8371531;28;20276;-68
2023/12/06 07:13:07;;;;;;;91.17;42.40;;;-3.50;99.90;;;;;;8370516;28;20209;-69
2023/12/06 07:17:08;;;;;;;94.27;46.73;;;-3.50;99.90;;;;;;8367431;28;20557;-69
2023/12/06 07:21:09;;;;;;;81.93;42.57;;;-3.40;99.90;;;;;;8370893;28;20193;-69
2023/12/06 07:25:10;;;;;;;83.00;42.93;;;-3.30;99.90;;;;;;8370222;28;20237;-69
2023/12/06 07:29:12;;;;;;;134.80;54.50;;;-3.30;99.90;;;;;;8368370;28;20214;-69
2023/12/06 07:33:13;;;;;;;93.27;46.00;;;-3.20;99.90;;;;;;8371157;28;20185;-68
2023/12/06 07:37:15;;;;;;;94.23;45.60;;;-3.20;99.90;;;;;;8366626;28;20271;-68
2023/12/06 07:41:16;;;;;;;94.40;45.93;;;-3.20;99.90;;;;;;8366113;28;20190;-69
2023/12/06 07:45:17;;;;;;;121.37;57.90;;;-3.10;99.90;;;;;;8368674;28;20246;-68
2023/12/06 07:49:17;;;;;;;197.73;94.57;;;-3.00;99.90;;;;;;8369318;28;20240;-69
2023/12/06 07:53:21;;;;;;;126.73;60.10;;;-2.90;99.90;;;;;;8368716;28;20201;-69
2023/12/06 07:57:27;;;;;;;130.00;62.23;;;-2.80;99.90;;;;;;8374176;28;20273;-69
2023/12/06 08:01:31;;;;;;;128.30;60.40;;;-2.70;99.90;;;;;;8366113;28;20322;-68
2023/12/06 08:05:32;;;;;;;106.87;52.87;;;-2.50;99.90;;;;;;8371541;28;20298;-68
2023/12/06 08:09:33;;;;;;;91.53;48.87;;;-2.40;99.90;;;;;;8359820;28;20184;-68
2023/12/06 08:13:34;;;;;;;102.77;54.30;;;-2.30;99.90;;;;;;8370559;28;20290;-68
2023/12/06 08:17:35;;;;;;;89.23;45.20;;;-2.10;99.90;;;;;;8372532;28;20184;-68
2023/12/06 08:21:36;;;;;;;96.77;49.67;;;-2.00;99.90;;;;;;8365548;28;20184;-69
2023/12/06 08:25:37;;;;;;;75.50;39.97;;;-2.00;99.90;;;;;;8365084;28;20233;-68
2023/12/06 08:29:38;;;;;;;75.50;39.20;;;-2.00;99.90;;;;;;8373243;28;20170;-67
2023/12/06 08:33:40;;;;;;;75.77;40.47;;;-2.00;99.90;;;;;;8375328;28;20199;-67
2023/12/06 08:37:42;;;;;;;75.70;40.50;;;-1.90;99.90;;;;;;8370278;28;20511;-68
2023/12/06 08:41:43;;;;;;;82.07;44.73;;;-1.80;99.90;;;;;;8368152;28;20202;-67
2023/12/06 08:45:44;;;;;;;77.90;41.87;;;-1.80;99.90;;;;;;8368113;28;20236;-67
2023/12/06 08:49:46;;;;;;;75.47;40.77;;;-1.80;99.90;;;;;;8369019;28;20184;-67
2023/12/06 08:53:47;;;;;;;89.33;45.27;;;-1.90;99.90;;;;;;8375896;28;20178;-67
2023/12/06 08:57:50;;;;;;;99.23;48.97;;;-1.90;99.90;;;;;;8371411;28;20244;-66
2023/12/06 09:01:50;;;;;;;82.87;47.63;;;-1.90;99.90;;;;;;8373826;28;20205;-67
2023/12/06 09:05:51;;;;;;;109.43;60.17;;;-1.90;99.90;;;;;;8373973;28;20915;-67
2023/12/06 09:09:52;;;;;;;103.73;56.37;;;-1.80;99.90;;;;;;8385036;28;20181;-68
2023/12/06 09:13:53;;;;;;;86.93;46.90;;;-1.60;99.90;;;;;;8370503;28;20201;-67
2023/12/06 09:18:00;;;;;;;80.97;46.13;;;-1.40;99.90;;;;;;8371020;28;20186;-67
2023/12/06 09:22:01;;;;;;;90.53;46.63;;;-1.00;99.90;;;;;;8369345;28;20252;-68
2023/12/06 09:26:07;;;;;;;84.30;46.47;;;-0.60;99.90;;;;;;8373081;28;20806;-65
2023/12/06 09:30:12;;;;;;;74.53;42.60;;;-0.40;1.00;;;;;;8384699;28;20975;-66
2023/12/06 09:34:22;;;;;;;72.50;41.40;;;-0.10;24.40;;;;;;8385107;28;20215;-65
2023/12/06 09:38:22;;;;;;;71.63;40.33;;;0.20;1.00;;;;;;8382690;28;20181;-67
2023/12/06 09:42:25;;;;;;;75.90;42.80;;;0.50;1.00;;;;;;8363899;28;20205;-68
2023/12/06 09:46:27;;;;;;;77.67;43.13;;;0.70;1.00;;;;;;8375890;28;20205;-68
2023/12/06 09:50:28;;;;;;;66.97;39.27;;;0.70;1.00;;;;;;8396178;28;20182;-66
2023/12/06 09:54:29;;;;;;;66.83;38.60;;;0.70;1.00;;;;;;8376932;28;20192;-65
2023/12/06 09:58:30;;;;;;;72.37;40.17;;;0.90;1.00;;;;;;8374916;28;20176;-67
2023/12/06 10:02:57;;;;;;;71.00;40.33;;;0.60;1.00;;;;;;8370382;28;20200;-68
2023/12/06 10:06:59;;;;;;;68.10;38.30;;;0.20;1.00;;;;;;8371560;28;20271;-68
2023/12/06 10:11:12;;;;;;;62.90;36.33;;;0.10;1.00;;;;;;8371819;28;20519;-67
2023/12/06 10:15:15;;;;;;;73.30;40.80;;;0.30;1.00;;;;;;8367337;28;20219;-67
2023/12/06 10:19:21;;;;;;;71.60;41.93;;;0.30;1.00;;;;;;8365910;28;20199;-67
2023/12/06 10:23:23;;;;;;;83.40;48.87;;;0.40;1.00;;;;;;8373295;28;20284;-67
2023/12/06 10:27:24;;;;;;;113.10;56.13;;;0.30;1.00;;;;;;8368472;28;20178;-66
2023/12/06 10:31:25;;;;;;;155.67;76.37;;;0.50;1.00;;;;;;8365687;28;20170;-66
2023/12/06 10:35:27;;;;;;;167.27;82.47;;;0.60;1.00;;;;;;8364636;28;20184;-66
2023/12/06 10:39:30;;;;;;;115.93;61.60;;;0.70;1.00;;;;;;8370763;28;20185;-66
2023/12/06 10:43:33;;;;;;;120.30;60.30;;;0.80;1.00;;;;;;8362346;28;20346;-66
2023/12/06 10:47:36;;;;;;;115.43;58.53;;;0.80;1.00;;;;;;8368502;28;20227;-65
2023/12/06 10:51:38;;;;;;;124.87;63.37;;;1.00;1.00;;;;;;8369742;28;20189;-67
2023/12/06 10:55:42;;;;;;;167.87;81.37;;;1.10;1.00;;;;;;8373569;28;20206;-66
2023/12/06 10:59:46;;;;;;;99.43;54.80;;;1.10;1.00;;;;;;8377414;28;20292;-65
2023/12/06 11:03:56;;;;;;;98.13;52.97;;;1.20;1.00;;;;;;8388078;28;20209;-66
2023/12/06 11:08:31;;;;;;;94.60;50.87;;;1.20;1.00;;;;;;8383547;28;20195;-65
2023/12/06 11:12:47;;;;;;;97.00;53.20;;;1.30;1.00;;;;;;8377202;28;20177;-65
2023/12/06 11:16:53;;;;;;;94.40;53.70;;;1.40;1.00;;;;;;8377675;28;20234;-66
2023/12/06 11:20:58;;;;;;;99.13;55.13;;;1.40;1.00;;;;;;8387471;28;20227;-66
2023/12/06 11:25:02;;;;;;;85.90;48.67;;;1.40;1.00;;;;;;8385759;28;20216;-65
2023/12/06 11:29:07;;;;;;;76.53;45.40;;;1.40;1.00;;;;;;8381859;28;20189;-65
2023/12/06 11:33:12;;;;;;;81.57;47.40;;;1.60;1.00;;;;;;8377547;28;20624;-65
2023/12/06 11:37:29;;;;;;;93.40;51.13;;;1.70;1.00;;;;;;8379549;28;20197;-66
2023/12/06 11:41:33;;;;;;;75.20;44.13;;;1.80;1.00;;;;;;8379750;28;20270;-65
2023/12/06 11:45:38;;;;;;;71.57;42.17;;;1.80;1.00;;;;;;8375168;28;20205;-65
2023/12/06 11:49:52;;;;;;;76.10;44.70;;;1.80;1.00;;;;;;8372774;28;20188;-65
2023/12/06 11:53:53;;;;;;;76.60;44.30;;;1.80;1.00;;;;;;8379395;28;20434;-66
2023/12/06 11:58:09;;;;;;;68.83;40.23;;;1.80;1.00;;;;;;8376784;28;20184;-66
2023/12/06 12:02:11;;;;;;;70.23;42.00;;;1.80;1.00;;;;;;8382995;28;20210;-66
2023/12/06 12:06:15;;;;;;;69.00;40.87;;;1.80;1.00;;;;;;8382882;28;20212;-66
2023/12/06 12:10:19;;;;;;;79.23;45.30;;;1.80;1.00;;;;;;8379442;28;20193;-66
2023/12/06 12:14:20;;;;;;;78.97;42.80;;;1.80;1.00;;;;;;8375961;28;20192;-66
2023/12/06 12:18:23;;;;;;;70.40;42.70;;;1.70;1.00;;;;;;8375539;28;20493;-66
2023/12/06 12:22:24;;;;;;;64.23;39.90;;;1.70;1.00;;;;;;8368921;28;20176;-66
2023/12/06 12:26:24;;;;;;;74.53;43.47;;;1.60;1.00;;;;;;8375210;28;20211;-66
2023/12/06 12:30:36;;;;;;;76.13;42.57;;;1.60;1.00;;;;;;8378585;28;20185;-66
2023/12/06 12:34:37;;;;;;;120.87;63.77;;;1.50;1.00;;;;;;8371235;28;20181;-65
2023/12/06 12:38:39;;;;;;;74.37;44.20;;;1.50;1.00;;;;;;8376576;28;20192;-65
2023/12/06 12:42:41;;;;;;;72.50;42.23;;;1.40;1.00;;;;;;8378081;28;20338;-65
2023/12/06 12:46:42;;;;;;;79.67;45.50;;;1.40;1.00;;;;;;8380613;28;20209;-66
2023/12/06 12:50:44;;;;;;;80.73;45.43;;;1.40;1.00;;;;;;8372793;28;20182;-66
2023/12/06 12:54:46;;;;;;;82.27;47.00;;;1.40;1.00;;;;;;8371014;28;20190;-66
2023/12/06 12:58:48;;;;;;;100.13;51.00;;;1.40;1.00;;;;;;8369917;28;20172;-65
2023/12/06 13:02:52;;;;;;;213.20;88.17;;;1.30;1.00;;;;;;8374921;28;20205;-66
2023/12/06 13:06:56;;;;;;;261.23;99.90;;;1.20;1.00;;;;;;8381376;28;20192;-65
2023/12/06 13:10:59;;;;;;;86.70;47.47;;;1.20;1.00;;;;;;8377154;28;20181;-65
2023/12/06 13:14:59;;;;;;;73.37;41.00;;;1.10;1.00;;;;;;8377559;28;20185;-66
2023/12/06 13:19:03;;;;;;;78.07;43.50;;;1.10;1.00;;;;;;8381623;28;20196;-66
2023/12/06 13:23:04;;;;;;;70.27;40.63;;;1.10;1.00;;;;;;8380626;28;20185;-66
2023/12/06 13:27:05;;;;;;;66.70;37.73;;;1.00;1.00;;;;;;8376956;28;20185;-66
2023/12/06 13:31:07;;;;;;;64.70;38.47;;;0.90;1.00;;;;;;8372964;28;20200;-66
2023/12/06 13:35:10;;;;;;;64.87;38.87;;;0.80;1.00;;;;;;8376343;28;20288;-66
2023/12/06 13:39:11;;;;;;;66.67;36.93;;;0.80;1.00;;;;;;8375408;28;20182;-67
2023/12/06 13:43:12;;;;;;;79.87;44.50;;;0.90;1.00;;;;;;8377349;28;20205;-66
2023/12/06 13:47:14;;;;;;;65.57;38.93;;;0.80;1.00;;;;;;8372813;28;20279;-66
2023/12/06 13:51:16;;;;;;;60.57;37.67;;;0.80;1.00;;;;;;8378892;28;20185;-66
2023/12/06 13:55:18;;;;;;;60.93;36.20;;;0.80;1.00;;;;;;8373613;28;20194;-66
2023/12/06 13:59:19;;;;;;;71.83;40.80;;;0.80;1.00;;;;;;8372285;28;20181;-65
2023/12/06 14:03:21;;;;;;;62.00;36.17;;;0.80;1.00;;;;;;8374595;28;20578;-66
2023/12/06 14:07:22;;;;;;;80.73;45.80;;;0.80;1.00;;;;;;8371202;28;20178;-66
2023/12/06 14:11:25;;;;;;;73.07;41.37;;;0.70;1.00;;;;;;8369763;28;20193;-66
2023/12/06 14:15:26;;;;;;;70.13;39.03;;;0.60;1.00;;;;;;8374421;28;20223;-67
2023/12/06 14:19:29;;;;;;;65.03;38.13;;;0.50;1.00;;;;;;8371455;28;20189;-66
2023/12/06 14:23:30;;;;;;;67.90;39.63;;;0.40;1.00;;;;;;8373680;28;20219;-66
2023/12/06 14:27:32;;;;;;;66.23;38.97;;;0.30;1.00;;;;;;8372519;28;20188;-66
2023/12/06 14:31:33;;;;;;;70.23;40.60;;;0.20;1.00;;;;;;8372568;28;20196;-66
2023/12/06 14:35:37;;;;;;;68.00;40.50;;;0.20;1.00;;;;;;8369700;28;20197;-66
2023/12/06 14:39:38;;;;;;;66.10;38.93;;;0.10;1.00;;;;;;8372865;28;20241;-67
2023/12/06 14:43:39;;;;;;;63.90;37.20;;;0.00;1.00;;;;;;8370333;28;20210;-66
2023/12/06 14:47:40;;;;;;;71.07;40.20;;;0.00;1.00;;;;;;8373145;28;20208;-66
2023/12/06 14:51:41;;;;;;;66.17;39.40;;;-0.10;1.00;;;;;;8374420;28;20189;-66
2023/12/06 14:55:42;;;;;;;67.93;39.73;;;-0.20;1.00;;;;;;8376424;28;20268;-66
2023/12/06 14:59:44;;;;;;;71.37;41.73;;;-0.30;1.00;;;;;;8377136;28;20193;-66
2023/12/06 15:03:44;;;;;;;71.70;43.30;;;-0.40;1.00;;;;;;8378852;28;20287;-66
2023/12/06 15:07:47;;;;;;;86.13;46.77;;;-0.40;1.00;;;;;;8378687;28;20456;-66
2023/12/06 15:11:50;;;;;;;77.77;45.90;;;-0.40;1.00;;;;;;8371506;28;20177;-67
2023/12/06 15:15:52;;;;;;;75.77;45.40;;;-0.50;1.00;;;;;;8372530;28;20182;-66
2023/12/06 15:19:53;;;;;;;77.63;44.57;;;-0.40;1.00;;;;;;8368800;28;20196;-62
2023/12/06 15:23:54;;;;;;;72.57;42.10;;;-0.50;1.00;;;;;;8362058;28;20209;-62
2023/12/06 15:27:54;;;;;;;72.97;41.80;;;-0.50;1.00;;;;;;8364495;28;20185;-63
2023/12/06 15:31:55;;;;;;;72.60;42.30;;;-0.50;1.00;;;;;;8370289;28;20177;-61
2023/12/06 15:35:56;;;;;;;77.27;43.73;;;-0.50;1.00;;;;;;8365460;28;20186;-62
2023/12/06 15:39:58;;;;;;;71.37;42.43;;;-0.50;1.00;;;;;;8372415;28;20184;-62
2023/12/06 15:43:59;;;;;;;81.37;46.90;;;-0.60;1.00;;;;;;8372793;28;20216;-63
2023/12/06 15:48:05;;;;;;;74.30;46.10;;;-0.60;1.00;;;;;;8370671;28;20236;-63
2023/12/06 15:52:07;;;;;;;79.63;44.70;;;-0.60;1.00;;;;;;8372256;28;20177;-64
2023/12/06 15:56:08;;;;;;;84.10;47.37;;;-0.60;15.80;;;;;;8368147;28;20516;-62
2023/12/06 16:00:10;;;;;;;93.53;49.90;;;-0.60;16.50;;;;;;8369914;28;20212;-65
2023/12/06 16:04:12;;;;;;;83.90;46.97;;;-0.60;26.40;;;;;;8371047;28;20242;-65
2023/12/06 16:08:13;;;;;;;86.60;49.73;;;-0.60;37.70;;;;;;8371515;28;20272;-65
2023/12/06 16:12:14;;;;;;;93.07;53.20;;;-0.70;50.70;;;;;;8366714;28;20192;-65
2023/12/06 16:16:18;;;;;;;100.23;55.70;;;-0.70;62.40;;;;;;8365306;28;20211;-65
2023/12/06 16:20:19;;;;;;;94.73;54.57;;;-0.70;98.80;;;;;;8371226;28;20190;-66
2023/12/06 16:24:20;;;;;;;96.23;53.73;;;-0.80;99.90;;;;;;8367728;28;20204;-66
2023/12/06 16:28:21;;;;;;;88.43;51.50;;;-0.80;99.90;;;;;;8368387;28;20235;-66
2023/12/06 16:32:22;;;;;;;83.70;48.87;;;-0.90;99.90;;;;;;8367633;28;20219;-66
2023/12/06 16:36:23;;;;;;;225.37;97.73;;;-0.90;99.90;;;;;;8374828;28;20181;-66
2023/12/06 16:40:24;;;;;;;222.47;99.53;;;-0.90;99.90;;;;;;8375466;28;20191;-65
2023/12/06 16:44:26;;;;;;;157.90;75.53;;;-0.90;99.90;;;;;;8374729;28;20244;-65
2023/12/06 16:48:27;;;;;;;110.83;57.07;;;-0.90;99.90;;;;;;8375895;28;20402;-65
2023/12/06 16:52:28;;;;;;;98.13;52.70;;;-0.90;99.90;;;;;;8374281;28;20183;-65
2023/12/06 16:56:29;;;;;;;88.77;48.67;;;-0.80;99.90;;;;;;8372764;28;20177;-65
2023/12/06 17:00:30;;;;;;;87.50;48.13;;;-0.80;99.90;;;;;;8375318;28;20225;-66
2023/12/06 17:04:30;;;;;;;84.30;47.40;;;-0.80;99.90;;;;;;8377611;28;20192;-65
2023/12/06 17:08:31;;;;;;;107.83;53.23;;;-0.80;99.90;;;;;;8375181;28;20185;-65
2023/12/06 17:12:33;;;;;;;102.73;53.67;;;-0.80;1.00;;;;;;8380030;28;20227;-65
2023/12/06 17:16:34;;;;;;;83.53;48.03;;;-0.80;1.00;;;;;;8369876;28;20197;-66
2023/12/06 17:20:35;;;;;;;79.67;46.80;;;-0.80;1.00;;;;;;8374770;28;20199;-66
2023/12/06 17:24:36;;;;;;;83.30;45.50;;;-0.80;1.00;;;;;;8373781;28;20201;-66
2023/12/06 17:28:36;;;;;;;82.83;46.20;;;-0.70;1.00;;;;;;8375583;28;20569;-66
2023/12/06 17:32:38;;;;;;;77.77;44.40;;;-0.70;1.00;;;;;;8375746;28;20280;-66
2023/12/06 17:36:39;;;;;;;82.60;45.60;;;-0.80;1.00;;;;;;8374598;28;20177;-66
2023/12/06 17:40:44;;;;;;;82.07;46.27;;;-0.80;1.00;;;;;;8371995;28;20181;-65
2023/12/06 17:44:46;;;;;;;86.40;49.67;;;-0.80;1.00;;;;;;8377760;28;20211;-66
2023/12/06 17:48:47;;;;;;;82.27;45.03;;;-0.80;1.00;;;;;;8374164;28;20190;-65
2023/12/06 17:52:48;;;;;;;75.50;44.57;;;-0.70;1.00;;;;;;8375740;28;20234;-66
2023/12/06 17:56:53;;;;;;;78.53;44.43;;;-0.70;1.00;;;;;;8375772;28;20215;-65
2023/12/06 18:00:54;;;;;;;76.67;45.80;;;-0.70;1.00;;;;;;8373951;28;20225;-66
2023/12/06 18:04:54;;;;;;;83.87;48.03;;;-0.70;1.00;;;;;;8373480;28;20216;-66
2023/12/06 18:08:55;;;;;;;78.80;44.47;;;-0.70;9.80;;;;;;8375577;28;20534;-65
2023/12/06 18:12:56;;;;;;;77.17;43.47;;;-0.70;16.00;;;;;;8371884;28;20182;-66
2023/12/06 18:16:57;;;;;;;80.10;44.80;;;-0.70;30.50;;;;;;8375139;28;20188;-61
2023/12/06 18:20:58;;;;;;;80.13;45.43;;;-0.70;53.60;;;;;;8369508;28;20298;-66
2023/12/06 18:24:59;;;;;;;82.00;45.40;;;-0.70;90.30;;;;;;8373537;28;20197;-66
2023/12/06 18:29:00;;;;;;;93.40;50.43;;;-0.70;90.80;;;;;;8373067;28;20184;-64
2023/12/06 18:33:01;;;;;;;91.83;48.50;;;-0.70;96.90;;;;;;8380091;28;20190;-66
2023/12/06 18:37:02;;;;;;;80.70;47.97;;;-0.70;99.40;;;;;;8371855;28;20178;-65
2023/12/06 18:41:05;;;;;;;86.97;48.87;;;-0.70;99.90;;;;;;8367340;28;20290;-65
2023/12/06 18:45:07;;;;;;;85.40;46.67;;;-0.70;99.90;;;;;;8375740;28;20217;-66
2023/12/06 18:49:08;;;;;;;90.17;52.10;;;-0.70;99.90;;;;;;8374818;28;20245;-66
2023/12/06 18:53:08;;;;;;;88.97;50.20;;;-0.80;99.90;;;;;;8368745;28;20273;-66
2023/12/06 18:57:09;;;;;;;87.23;49.70;;;-0.80;99.90;;;;;;8372161;28;20188;-67
2023/12/06 19:01:10;;;;;;;79.63;46.10;;;-0.80;99.90;;;;;;8370647;28;20212;-67
2023/12/06 19:05:13;;;;;;;80.47;47.43;;;-0.80;99.90;;;;;;8370825;28;20221;-66
2023/12/06 19:09:14;;;;;;;84.07;48.03;;;-0.80;99.90;;;;;;8373874;28;20188;-67
2023/12/06 19:13:15;;;;;;;89.10;50.10;;;-0.80;99.90;;;;;;8371406;28;20208;-66
2023/12/06 19:17:16;;;;;;;92.83;51.80;;;-0.80;99.90;;;;;;8373400;28;20225;-66
2023/12/06 19:21:17;;;;;;;86.33;47.20;;;-0.80;99.90;;;;;;8374084;28;20300;-66
2023/12/06 19:25:18;;;;;;;94.53;51.80;;;-0.80;99.90;;;;;;8367255;28;20787;-65
2023/12/06 19:29:19;;;;;;;117.53;61.67;;;-0.80;99.90;;;;;;8365643;28;20196;-65
2023/12/06 19:33:20;;;;;;;117.80;59.47;;;-0.80;99.90;;;;;;8370835;28;20488;-66
2023/12/06 19:37:23;;;;;;;102.10;56.43;;;-0.80;99.90;;;;;;8368353;28;20189;-65
2023/12/06 19:41:25;;;;;;;101.43;52.13;;;-0.70;99.90;;;;;;8372125;28;20487;-65
2023/12/06 19:45:26;;;;;;;90.20;50.83;;;-0.70;99.90;;;;;;8370093;28;20236;-65
2023/12/06 19:49:26;;;;;;;102.87;56.53;;;-0.70;99.90;;;;;;8369495;28;20180;-66
2023/12/06 19:53:28;;;;;;;107.70;57.30;;;-0.70;99.90;;;;;;8371564;28;20192;-64
2023/12/06 19:57:31;;;;;;;97.07;54.37;;;-0.70;99.90;;;;;;8367521;28;20242;-65
2023/12/06 20:01:31;;;;;;;99.10;55.00;;;-0.70;99.90;;;;;;8371623;28;20264;-65
2023/12/06 20:05:32;;;;;;;104.07;58.13;;;-0.60;99.90;;;;;;8370504;28;20214;-65
2023/12/06 20:09:34;;;;;;;103.03;56.33;;;-0.70;99.90;;;;;;8368100;28;20192;-65
2023/12/06 20:13:35;;;;;;;90.93;53.10;;;-0.60;99.90;;;;;;8364463;28;20198;-65
2023/12/06 20:17:36;;;;;;;92.07;51.00;;;-0.60;99.90;;;;;;8370221;28;20188;-65
2023/12/06 20:21:37;;;;;;;88.83;50.40;;;-0.60;99.90;;;;;;8370720;28;20221;-65
2023/12/06 20:25:38;;;;;;;98.50;54.40;;;-0.60;99.90;;;;;;8372087;28;20216;-66
2023/12/06 20:29:41;;;;;;;99.67;54.37;;;-0.60;99.90;;;;;;8364001;28;20259;-65
2023/12/06 20:33:42;;;;;;;93.03;51.77;;;-0.60;99.90;;;;;;8367976;28;20271;-66